sensor_id;sensor_type;location;lat;lon;timestamp;pressure;altitude;pressure_sealevel;temperature;humidity
66664;BME280;59683;51.428;-1.994;2023-08-21T02:08:43;101562.50;;;12.97;100.00
66664;BME280;59683;51.428;-1.994;2023-08-21T02:11:08;101560.25;;;12.80;100.00
66664;BME280;59683;51.428;-1.994;2023-08-21T02:13:33;101563.81;;;12.68;100.00
66664;BME280;59683;51.428;-1.994;2023-08-21T02:15:59;101563.00;;;12.54;100.00
66664;BME280;59683;51.428;-1.994;2023-08-21T02:18:24;101571.41;;;12.48;100.00
66664;BME280;59683;51.428;-1.994;2023-08-21T02:20:50;101571.03;;;12.42;100.00
66664;BME280;59683;51.428;-1.994;2023-08-21T02:23:15;101566.34;;;12.32;100.00
66664;BME280;59683;51.428;-1.994;2023-08-21T02:25:42;101567.19;;;12.33;100.00
66664;BME280;59683;51.428;-1.994;2023-08-21T02:28:07;101566.28;;;12.34;100.00
66664;BME280;59683;51.428;-1.994;2023-08-21T02:30:33;101568.38;;;12.29;100.00
66664;BME280;59683;51.428;-1.994;2023-08-21T02:32:58;101570.88;;;12.19;100.00
66664;BME280;59683;51.428;-1.994;2023-08-21T02:35:24;101570.22;;;12.15;100.00
66664;BME280;59683;51.428;-1.994;2023-08-21T02:37:49;101572.25;;;12.12;100.00
66664;BME280;59683;51.428;-1.994;2023-08-21T02:40:15;101571.81;;;12.18;100.00
66664;BME280;59683;51.428;-1.994;2023-08-21T02:42:40;101573.47;;;12.32;100.00
66664;BME280;59683;51.428;-1.994;2023-08-21T02:45:06;101568.44;;;12.53;100.00
66664;BME280;59683;51.428;-1.994;2023-08-21T02:47:36;101574.31;;;12.69;100.00
66664;BME280;59683;51.428;-1.994;2023-08-21T02:50:07;101576.41;;;12.77;100.00
66664;BME280;59683;51.428;-1.994;2023-08-21T02:52:33;101577.75;;;12.82;100.00
66664;BME280;59683;51.428;-1.994;2023-08-21T02:54:59;101573.94;;;12.86;100.00
66664;BME280;59683;51.428;-1.994;2023-08-21T02:57:25;101574.09;;;12.96;100.00
66664;BME280;59683;51.428;-1.994;2023-08-21T02:59:51;101578.59;;;13.07;100.00
66664;BME280;59683;51.428;-1.994;2023-08-21T03:02:17;101581.03;;;13.10;100.00
66664;BME280;59683;51.428;-1.994;2023-08-21T03:04:43;101586.84;;;13.15;100.00
66664;BME280;59683;51.428;-1.994;2023-08-21T03:07:08;101584.72;;;13.20;100.00
66664;BME280;59683;51.428;-1.994;2023-08-21T03:09:33;101587.53;;;13.30;100.00
66664;BME280;59683;51.428;-1.994;2023-08-21T03:11:59;101584.19;;;13.39;100.00
66664;BME280;59683;51.428;-1.994;2023-08-21T03:14:26;101591.34;;;13.50;100.00
66664;BME280;59683;51.428;-1.994;2023-08-21T03:16:52;101587.97;;;13.59;100.00
66664;BME280;59683;51.428;-1.994;2023-08-21T03:19:17;101589.69;;;13.71;100.00
66664;BME280;59683;51.428;-1.994;2023-08-21T03:21:43;101588.25;;;13.78;100.00
66664;BME280;59683;51.428;-1.994;2023-08-21T03:24:08;101588.72;;;13.83;100.00
66664;BME280;59683;51.428;-1.994;2023-08-21T03:26:34;101588.72;;;13.83;100.00
66664;BME280;59683;51.428;-1.994;2023-08-21T03:28:59;101593.81;;;13.87;100.00
66664;BME280;59683;51.428;-1.994;2023-08-21T03:31:25;101592.63;;;13.91;100.00
66664;BME280;59683;51.428;-1.994;2023-08-21T03:33:51;101595.19;;;13.92;100.00
66664;BME280;59683;51.428;-1.994;2023-08-21T03:36:16;101592.84;;;13.99;100.00
66664;BME280;59683;51.428;-1.994;2023-08-21T03:38:42;101588.41;;;13.99;100.00
66664;BME280;59683;51.428;-1.994;2023-08-21T03:41:07;101590.19;;;13.99;100.00
66664;BME280;59683;51.428;-1.994;2023-08-21T03:43:32;101586.69;;;13.98;100.00
66664;BME280;59683;51.428;-1.994;2023-08-21T03:45:58;101590.81;;;14.02;100.00
66664;BME280;59683;51.428;-1.994;2023-08-21T03:48:24;101584.63;;;14.02;100.00
66664;BME280;59683;51.428;-1.994;2023-08-21T03:50:49;101583.78;;;14.01;100.00
66664;BME280;59683;51.428;-1.994;2023-08-21T03:53:15;101590.94;;;14.01;100.00
66664;BME280;59683;51.428;-1.994;2023-08-21T03:55:40;101581.03;;;14.03;100.00
66664;BME280;59683;51.428;-1.994;2023-08-21T03:58:06;101585.47;;;14.02;100.00
66664;BME280;59683;51.428;-1.994;2023-08-21T04:00:31;101583.69;;;14.03;100.00
66664;BME280;59683;51.428;-1.994;2023-08-21T04:02:57;101573.75;;;14.05;100.00
66664;BME280;59683;51.428;-1.994;2023-08-21T04:05:23;101574.72;;;14.04;100.00
66664;BME280;59683;51.428;-1.994;2023-08-21T04:07:48;101577.38;;;14.04;100.00
66664;BME280;59683;51.428;-1.994;2023-08-21T04:10:14;101570.97;;;14.06;100.00
66664;BME280;59683;51.428;-1.994;2023-08-21T04:12:39;101571.09;;;14.05;100.00
66664;BME280;59683;51.428;-1.994;2023-08-21T04:15:05;101575.44;;;14.06;100.00
66664;BME280;59683;51.428;-1.994;2023-08-21T04:17:31;101569.16;;;14.07;100.00
66664;BME280;59683;51.428;-1.994;2023-08-21T04:19:57;101570.00;;;14.07;100.00
66664;BME280;59683;51.428;-1.994;2023-08-21T04:22:22;101569.16;;;14.07;100.00
66664;BME280;59683;51.428;-1.994;2023-08-21T04:24:48;101562.88;;;14.08;100.00
66664;BME280;59683;51.428;-1.994;2023-08-21T04:27:13;101566.38;;;14.08;100.00
66664;BME280;59683;51.428;-1.994;2023-08-21T04:29:39;101566.13;;;14.12;100.00
66664;BME280;59683;51.428;-1.994;2023-08-21T04:32:05;101572.16;;;14.14;100.00
66664;BME280;59683;51.428;-1.994;2023-08-21T04:34:34;101571.81;;;14.18;100.00
66664;BME280;59683;51.428;-1.994;2023-08-21T04:37:00;101578.69;;;14.21;100.00
66664;BME280;59683;51.428;-1.994;2023-08-21T04:39:26;101576.53;;;14.26;100.00
66664;BME280;59683;51.428;-1.994;2023-08-21T04:41:51;101586.81;;;14.30;100.00
66664;BME280;59683;51.428;-1.994;2023-08-21T04:44:17;101574.22;;;14.32;100.00
66664;BME280;59683;51.428;-1.994;2023-08-21T04:46:42;101582.78;;;14.36;100.00
66664;BME280;59683;51.428;-1.994;2023-08-21T04:49:08;101587.66;;;14.42;100.00
66664;BME280;59683;51.428;-1.994;2023-08-21T04:51:34;101587.50;;;14.44;100.00
66664;BME280;59683;51.428;-1.994;2023-08-21T04:53:59;101593.72;;;14.44;100.00
66664;BME280;59683;51.428;-1.994;2023-08-21T04:56:25;101590.91;;;14.46;100.00
66664;BME280;59683;51.428;-1.994;2023-08-21T04:58:52;101592.59;;;14.47;100.00
66664;BME280;59683;51.428;-1.994;2023-08-21T05:01:17;101596.94;;;14.48;100.00
66664;BME280;59683;51.428;-1.994;2023-08-21T05:03:43;101599.41;;;14.51;100.00
66664;BME280;59683;51.428;-1.994;2023-08-21T05:06:08;101601.97;;;14.52;100.00
66664;BME280;59683;51.428;-1.994;2023-08-21T05:08:34;101610.66;;;14.54;100.00
66664;BME280;59683;51.428;-1.994;2023-08-21T05:11:00;101606.44;;;14.52;100.00
66664;BME280;59683;51.428;-1.994;2023-08-21T05:13:26;101609.09;;;14.52;100.00
66664;BME280;59683;51.428;-1.994;2023-08-21T05:16:01;101596.72;;;14.51;100.00
66664;BME280;59683;51.428;-1.994;2023-08-21T05:18:26;101603.25;;;14.47;100.00
66664;BME280;59683;51.428;-1.994;2023-08-21T05:20:54;101598.53;;;14.39;100.00
66664;BME280;59683;51.428;-1.994;2023-08-21T05:23:20;101594.81;;;14.30;100.00
66664;BME280;59683;51.428;-1.994;2023-08-21T05:25:48;101589.72;;;14.16;100.00
66664;BME280;59683;51.428;-1.994;2023-08-21T05:28:14;101594.34;;;14.03;100.00
66664;BME280;59683;51.428;-1.994;2023-08-21T05:30:39;101599.38;;;13.95;100.00
66664;BME280;59683;51.428;-1.994;2023-08-21T05:33:05;101599.16;;;13.87;100.00
66664;BME280;59683;51.428;-1.994;2023-08-21T05:35:34;101588.63;;;13.74;100.00
66664;BME280;59683;51.428;-1.994;2023-08-21T05:38:01;101599.25;;;13.63;100.00
66664;BME280;59683;51.428;-1.994;2023-08-21T05:40:26;101592.06;;;13.52;100.00
66664;BME280;59683;51.428;-1.994;2023-08-21T05:42:51;101596.44;;;13.53;100.00
66664;BME280;59683;51.428;-1.994;2023-08-21T05:45:17;101601.97;;;13.50;100.00
66664;BME280;59683;51.428;-1.994;2023-08-21T05:47:42;101608.75;;;13.54;100.00
66664;BME280;59683;51.428;-1.994;2023-08-21T05:50:08;101603.94;;;13.59;100.00
66664;BME280;59683;51.428;-1.994;2023-08-21T05:52:34;101607.94;;;13.65;100.00
66664;BME280;59683;51.428;-1.994;2023-08-21T05:54:59;101611.81;;;13.72;100.00
66664;BME280;59683;51.428;-1.994;2023-08-21T05:57:25;101608.09;;;13.74;100.00
66664;BME280;59683;51.428;-1.994;2023-08-21T05:59:50;101610.38;;;13.79;100.00
66664;BME280;59683;51.428;-1.994;2023-08-21T06:02:16;101613.88;;;13.79;100.00
66664;BME280;59683;51.428;-1.994;2023-08-21T06:04:42;101603.75;;;13.84;100.00
66664;BME280;59683;51.428;-1.994;2023-08-21T06:07:08;101616.34;;;13.94;100.00
66664;BME280;59683;51.428;-1.994;2023-08-21T06:09:33;101625.41;;;14.02;100.00
66664;BME280;59683;51.428;-1.994;2023-08-21T06:12:05;101621.06;;;14.13;100.00
66664;BME280;59683;51.428;-1.994;2023-08-21T06:14:30;101617.56;;;14.23;100.00
66664;BME280;59683;51.428;-1.994;2023-08-21T06:17:01;101618.88;;;14.40;100.00
66664;BME280;59683;51.428;-1.994;2023-08-21T06:19:27;101609.72;;;14.55;100.00
66664;BME280;59683;51.428;-1.994;2023-08-21T06:21:54;101617.53;;;14.68;100.00
66664;BME280;59683;51.428;-1.994;2023-08-21T06:24:19;101613.38;;;14.87;100.00
66664;BME280;59683;51.428;-1.994;2023-08-21T06:26:45;101613.56;;;15.06;100.00
66664;BME280;59683;51.428;-1.994;2023-08-21T06:29:10;101616.63;;;15.22;100.00
66664;BME280;59683;51.428;-1.994;2023-08-21T06:31:36;101612.63;;;15.28;100.00
66664;BME280;59683;51.428;-1.994;2023-08-21T06:34:01;101618.22;;;15.25;100.00
66664;BME280;59683;51.428;-1.994;2023-08-21T06:36:26;101631.53;;;15.25;100.00
66664;BME280;59683;51.428;-1.994;2023-08-21T06:38:52;101622.75;;;15.34;100.00
66664;BME280;59683;51.428;-1.994;2023-08-21T06:41:17;101620.81;;;15.36;100.00
66664;BME280;59683;51.428;-1.994;2023-08-21T06:43:42;101632.34;;;15.37;100.00
66664;BME280;59683;51.428;-1.994;2023-08-21T06:46:08;101631.34;;;15.38;100.00
66664;BME280;59683;51.428;-1.994;2023-08-21T06:48:38;101634.66;;;15.30;100.00
66664;BME280;59683;51.428;-1.994;2023-08-21T06:51:05;101629.72;;;15.25;100.00
66664;BME280;59683;51.428;-1.994;2023-08-21T06:53:30;101635.66;;;15.29;100.00
66664;BME280;59683;51.428;-1.994;2023-08-21T06:55:56;101634.41;;;15.33;100.00
66664;BME280;59683;51.428;-1.994;2023-08-21T06:58:21;101630.84;;;15.44;100.00
66664;BME280;59683;51.428;-1.994;2023-08-21T07:00:47;101627.41;;;15.53;100.00
66664;BME280;59683;51.428;-1.994;2023-08-21T07:03:12;101641.56;;;15.65;100.00
66664;BME280;59683;51.428;-1.994;2023-08-21T07:05:38;101639.34;;;15.70;100.00
66664;BME280;59683;51.428;-1.994;2023-08-21T07:08:03;101644.22;;;15.86;100.00
66664;BME280;59683;51.428;-1.994;2023-08-21T07:10:29;101640.13;;;16.02;100.00
66664;BME280;59683;51.428;-1.994;2023-08-21T07:12:55;101648.66;;;16.27;100.00
66664;BME280;59683;51.428;-1.994;2023-08-21T07:15:21;101649.72;;;16.45;100.00
66664;BME280;59683;51.428;-1.994;2023-08-21T07:17:47;101651.19;;;16.59;100.00
66664;BME280;59683;51.428;-1.994;2023-08-21T07:20:15;101648.38;;;16.61;100.00
66664;BME280;59683;51.428;-1.994;2023-08-21T07:22:41;101644.97;;;16.49;100.00
66664;BME280;59683;51.428;-1.994;2023-08-21T07:25:07;101656.47;;;16.49;100.00
66664;BME280;59683;51.428;-1.994;2023-08-21T07:27:33;101653.44;;;17.04;100.00
66664;BME280;59683;51.428;-1.994;2023-08-21T07:29:58;101658.06;;;17.89;100.00
66664;BME280;59683;51.428;-1.994;2023-08-21T07:32:24;101659.03;;;18.35;100.00
66664;BME280;59683;51.428;-1.994;2023-08-21T07:34:55;101640.25;;;18.35;100.00
66664;BME280;59683;51.428;-1.994;2023-08-21T07:37:21;101625.53;;;18.22;100.00
66664;BME280;59683;51.428;-1.994;2023-08-21T07:39:46;101610.56;;;18.29;100.00
66664;BME280;59683;51.428;-1.994;2023-08-21T07:42:12;101588.75;;;18.41;100.00
66664;BME280;59683;51.428;-1.994;2023-08-21T07:44:39;101559.53;;;18.48;100.00
66664;BME280;59683;51.428;-1.994;2023-08-21T07:47:05;101563.19;;;18.47;100.00
66664;BME280;59683;51.428;-1.994;2023-08-21T07:49:31;101552.31;;;18.49;100.00
66664;BME280;59683;51.428;-1.994;2023-08-21T07:51:56;101558.56;;;18.67;100.00
66664;BME280;59683;51.428;-1.994;2023-08-21T07:54:22;101557.84;;;18.65;100.00
66664;BME280;59683;51.428;-1.994;2023-08-21T07:56:47;101554.31;;;18.64;100.00
66664;BME280;59683;51.428;-1.994;2023-08-21T07:59:13;101547.69;;;18.86;100.00
66664;BME280;59683;51.428;-1.994;2023-08-21T08:01:38;101551.47;;;18.93;100.00
66664;BME280;59683;51.428;-1.994;2023-08-21T08:04:04;101534.34;;;19.12;100.00
66664;BME280;59683;51.428;-1.994;2023-08-21T08:06:31;101535.56;;;19.18;100.00
66664;BME280;59683;51.428;-1.994;2023-08-21T08:08:56;101539.25;;;19.17;100.00
66664;BME280;59683;51.428;-1.994;2023-08-21T08:11:22;101545.91;;;19.31;100.00
66664;BME280;59683;51.428;-1.994;2023-08-21T15:05:25;101288.41;;;31.80;61.74
66664;BME280;59683;51.428;-1.994;2023-08-21T15:07:50;101297.06;;;32.05;59.03
66664;BME280;59683;51.428;-1.994;2023-08-21T15:10:16;101297.97;;;31.94;60.29
66664;BME280;59683;51.428;-1.994;2023-08-21T15:12:42;101303.13;;;31.21;66.69
66664;BME280;59683;51.428;-1.994;2023-08-21T15:15:08;101303.09;;;29.81;80.66
66664;BME280;59683;51.428;-1.994;2023-08-21T15:17:34;101305.97;;;28.64;89.20
66664;BME280;59683;51.428;-1.994;2023-08-21T15:19:59;101294.22;;;27.50;100.00
66664;BME280;59683;51.428;-1.994;2023-08-21T15:22:25;101290.97;;;26.56;100.00
66664;BME280;59683;51.428;-1.994;2023-08-21T15:24:50;101279.47;;;26.21;100.00
66664;BME280;59683;51.428;-1.994;2023-08-21T15:27:15;101271.91;;;26.76;100.00
66664;BME280;59683;51.428;-1.994;2023-08-21T15:29:42;101270.66;;;28.07;100.00
66664;BME280;59683;51.428;-1.994;2023-08-21T15:32:08;101259.75;;;28.07;100.00
66664;BME280;59683;51.428;-1.994;2023-08-21T15:34:33;101252.34;;;28.83;100.00
66664;BME280;59683;51.428;-1.994;2023-08-21T15:36:58;101250.56;;;29.25;95.81
66664;BME280;59683;51.428;-1.994;2023-08-21T15:39:24;101240.59;;;29.79;89.18
66664;BME280;59683;51.428;-1.994;2023-08-21T15:41:49;101242.66;;;29.35;90.26
66664;BME280;59683;51.428;-1.994;2023-08-21T15:44:15;101248.72;;;28.70;93.72
66664;BME280;59683;51.428;-1.994;2023-08-21T15:46:40;101244.31;;;28.26;100.00
66664;BME280;59683;51.428;-1.994;2023-08-21T15:49:09;101244.91;;;27.78;100.00
66664;BME280;59683;51.428;-1.994;2023-08-21T15:51:35;101238.47;;;27.34;100.00
66664;BME280;59683;51.428;-1.994;2023-08-21T15:54:00;101239.50;;;26.88;100.00
66664;BME280;59683;51.428;-1.994;2023-08-21T15:56:25;101239.38;;;27.59;100.00
66664;BME280;59683;51.428;-1.994;2023-08-21T15:58:51;101244.97;;;28.46;100.00
66664;BME280;59683;51.428;-1.994;2023-08-21T16:01:16;101246.94;;;28.94;99.85
66664;BME280;59683;51.428;-1.994;2023-08-21T16:03:42;101250.44;;;28.65;97.43
66664;BME280;59683;51.428;-1.994;2023-08-21T16:06:07;101247.75;;;27.90;100.00
66664;BME280;59683;51.428;-1.994;2023-08-21T16:08:32;101249.31;;;27.41;100.00
66664;BME280;59683;51.428;-1.994;2023-08-21T16:10:58;101243.78;;;26.31;100.00
66664;BME280;59683;51.428;-1.994;2023-08-21T16:13:23;101240.88;;;26.12;100.00
66664;BME280;59683;51.428;-1.994;2023-08-21T16:15:50;101241.25;;;26.43;100.00
66664;BME280;59683;51.428;-1.994;2023-08-21T16:18:15;101239.97;;;26.65;100.00
66664;BME280;59683;51.428;-1.994;2023-08-21T16:20:40;101257.16;;;26.26;100.00
66664;BME280;59683;51.428;-1.994;2023-08-21T16:23:06;101249.31;;;25.36;100.00
66664;BME280;59683;51.428;-1.994;2023-08-21T16:25:31;101250.91;;;24.48;100.00
66664;BME280;59683;51.428;-1.994;2023-08-21T16:27:57;101244.91;;;23.96;100.00
66664;BME280;59683;51.428;-1.994;2023-08-21T16:30:22;101249.31;;;23.40;100.00
66664;BME280;59683;51.428;-1.994;2023-08-21T16:32:47;101257.31;;;23.33;100.00
66664;BME280;59683;51.428;-1.994;2023-08-21T16:35:13;101243.75;;;23.26;100.00
66664;BME280;59683;51.428;-1.994;2023-08-21T16:37:38;101238.91;;;23.22;100.00
66664;BME280;59683;51.428;-1.994;2023-08-21T16:40:05;101251.78;;;23.05;100.00
66664;BME280;59683;51.428;-1.994;2023-08-21T16:42:33;101253.16;;;22.86;100.00
66664;BME280;59683;51.428;-1.994;2023-08-21T16:44:59;101248.69;;;22.64;100.00
66664;BME280;59683;51.428;-1.994;2023-08-21T16:47:24;101240.44;;;22.50;100.00
66664;BME280;59683;51.428;-1.994;2023-08-21T16:49:49;101240.97;;;22.31;100.00
66664;BME280;59683;51.428;-1.994;2023-08-21T16:52:17;101238.38;;;22.23;100.00
66664;BME280;59683;51.428;-1.994;2023-08-21T16:54:43;101232.31;;;22.21;100.00
66664;BME280;59683;51.428;-1.994;2023-08-21T16:57:08;101246.34;;;22.16;100.00
66664;BME280;59683;51.428;-1.994;2023-08-21T16:59:35;101253.44;;;22.32;100.00
66664;BME280;59683;51.428;-1.994;2023-08-21T17:02:00;101242.66;;;22.47;100.00
66664;BME280;59683;51.428;-1.994;2023-08-21T17:04:26;101227.31;;;22.77;100.00
66664;BME280;59683;51.428;-1.994;2023-08-21T17:06:51;101225.56;;;22.99;100.00
66664;BME280;59683;51.428;-1.994;2023-08-21T17:09:16;101218.06;;;22.86;100.00
66664;BME280;59683;51.428;-1.994;2023-08-21T17:11:42;101220.25;;;22.76;100.00
66664;BME280;59683;51.428;-1.994;2023-08-21T17:14:07;101209.16;;;22.56;100.00
66664;BME280;59683;51.428;-1.994;2023-08-21T17:16:33;101209.47;;;22.46;100.00
66664;BME280;59683;51.428;-1.994;2023-08-21T17:18:58;101215.84;;;22.45;100.00
66664;BME280;59683;51.428;-1.994;2023-08-21T17:21:23;101201.06;;;22.26;100.00
66664;BME280;59683;51.428;-1.994;2023-08-21T17:23:49;101189.44;;;21.88;100.00
66664;BME280;59683;51.428;-1.994;2023-08-21T17:26:14;101182.81;;;21.76;100.00
66664;BME280;59683;51.428;-1.994;2023-08-21T17:28:43;101195.06;;;21.64;100.00
66664;BME280;59683;51.428;-1.994;2023-08-21T17:31:08;101191.56;;;21.55;100.00
66664;BME280;59683;51.428;-1.994;2023-08-21T17:33:34;101190.72;;;21.54;100.00
66664;BME280;59683;51.428;-1.994;2023-08-21T17:36:03;101194.25;;;21.55;100.00
66664;BME280;59683;51.428;-1.994;2023-08-21T17:38:28;101193.06;;;21.57;100.00
66664;BME280;59683;51.428;-1.994;2023-08-21T17:40:53;101191.53;;;21.40;100.00
66664;BME280;59683;51.428;-1.994;2023-08-21T17:43:19;101190.38;;;21.34;100.00
66664;BME280;59683;51.428;-1.994;2023-08-21T17:45:44;101192.53;;;21.31;100.00
66664;BME280;59683;51.428;-1.994;2023-08-21T17:48:11;101196.59;;;21.35;100.00
66664;BME280;59683;51.428;-1.994;2023-08-21T17:50:36;101195.44;;;21.29;100.00
66664;BME280;59683;51.428;-1.994;2023-08-21T17:53:02;101192.25;;;21.26;100.00
66664;BME280;59683;51.428;-1.994;2023-08-21T17:55:29;101196.78;;;21.33;100.00
66664;BME280;59683;51.428;-1.994;2023-08-21T17:57:54;101196.81;;;21.25;100.00
66664;BME280;59683;51.428;-1.994;2023-08-21T18:00:23;101188.28;;;21.14;100.00
66664;BME280;59683;51.428;-1.994;2023-08-21T18:02:48;101188.66;;;21.02;100.00
66664;BME280;59683;51.428;-1.994;2023-08-21T18:05:13;101210.44;;;20.93;100.00
66664;BME280;59683;51.428;-1.994;2023-08-21T18:07:40;101224.72;;;20.93;100.00
66664;BME280;59683;51.428;-1.994;2023-08-21T18:10:06;101209.75;;;20.91;100.00
66664;BME280;59683;51.428;-1.994;2023-08-21T18:12:33;101225.06;;;20.90;100.00
66664;BME280;59683;51.428;-1.994;2023-08-21T18:14:59;101218.06;;;20.81;100.00
66664;BME280;59683;51.428;-1.994;2023-08-21T18:17:25;101215.91;;;20.68;100.00
66664;BME280;59683;51.428;-1.994;2023-08-21T18:19:50;101217.28;;;20.56;100.00
66664;BME280;59683;51.428;-1.994;2023-08-21T18:22:16;101211.25;;;20.37;100.00
66664;BME280;59683;51.428;-1.994;2023-08-21T18:24:41;101205.09;;;20.21;100.00
66664;BME280;59683;51.428;-1.994;2023-08-21T18:27:07;101216.69;;;19.97;100.00
66664;BME280;59683;51.428;-1.994;2023-08-21T18:29:34;101215.88;;;19.72;100.00
66664;BME280;59683;51.428;-1.994;2023-08-21T18:32:03;101213.63;;;19.51;100.00
66664;BME280;59683;51.428;-1.994;2023-08-21T18:34:29;101216.09;;;19.36;100.00
66664;BME280;59683;51.428;-1.994;2023-08-21T18:36:54;101215.25;;;19.19;100.00
66664;BME280;59683;51.428;-1.994;2023-08-21T18:39:19;101217.38;;;19.07;100.00
66664;BME280;59683;51.428;-1.994;2023-08-21T18:41:45;101208.59;;;18.89;100.00
66664;BME280;59683;51.428;-1.994;2023-08-21T18:44:10;101209.38;;;18.73;100.00
66664;BME280;59683;51.428;-1.994;2023-08-21T18:46:36;101210.44;;;18.54;100.00
66664;BME280;59683;51.428;-1.994;2023-08-21T18:49:01;101214.16;;;18.35;100.00
66664;BME280;59683;51.428;-1.994;2023-08-21T18:51:26;101208.03;;;18.17;100.00
66664;BME280;59683;51.428;-1.994;2023-08-21T18:53:52;101210.75;;;17.99;100.00
66664;BME280;59683;51.428;-1.994;2023-08-21T18:56:17;101213.66;;;17.88;100.00
66664;BME280;59683;51.428;-1.994;2023-08-21T18:58:42;101208.38;;;17.78;100.00
66664;BME280;59683;51.428;-1.994;2023-08-21T19:01:08;101209.41;;;17.67;100.00
66664;BME280;59683;51.428;-1.994;2023-08-21T19:03:33;101205.00;;;17.58;100.00
66664;BME280;59683;51.428;-1.994;2023-08-21T19:05:59;101203.25;;;17.49;100.00
66664;BME280;59683;51.428;-1.994;2023-08-21T19:08:25;101201.66;;;17.38;100.00
66664;BME280;59683;51.428;-1.994;2023-08-21T19:10:51;101207.44;;;17.34;100.00
66664;BME280;59683;51.428;-1.994;2023-08-21T19:13:16;101207.66;;;17.22;100.00
66664;BME280;59683;51.428;-1.994;2023-08-21T19:15:42;101218.97;;;17.16;100.00
66664;BME280;59683;51.428;-1.994;2023-08-21T19:18:07;101222.84;;;17.04;100.00
66664;BME280;59683;51.428;-1.994;2023-08-21T19:20:33;101230.63;;;16.97;100.00
66664;BME280;59683;51.428;-1.994;2023-08-21T19:22:58;101235.88;;;16.89;100.00
66664;BME280;59683;51.428;-1.994;2023-08-21T19:25:23;101230.56;;;16.80;100.00
66664;BME280;59683;51.428;-1.994;2023-08-21T19:27:49;101240.28;;;16.71;100.00
66664;BME280;59683;51.428;-1.994;2023-08-21T19:30:15;101227.78;;;16.62;100.00
66664;BME280;59683;51.428;-1.994;2023-08-21T19:32:40;101233.44;;;16.49;100.00
66664;BME280;59683;51.428;-1.994;2023-08-21T19:35:08;101239.81;;;16.38;100.00
66664;BME280;59683;51.428;-1.994;2023-08-21T19:37:34;101240.97;;;16.26;100.00
66664;BME280;59683;51.428;-1.994;2023-08-21T19:39:59;101248.97;;;16.16;100.00
66664;BME280;59683;51.428;-1.994;2023-08-21T19:42:25;101247.47;;;16.04;100.00
66664;BME280;59683;51.428;-1.994;2023-08-21T19:44:51;101254.50;;;15.95;100.00
66664;BME280;59683;51.428;-1.994;2023-08-21T19:47:16;101255.78;;;15.91;100.00
66664;BME280;59683;51.428;-1.994;2023-08-21T19:49:42;101252.38;;;15.89;100.00
66664;BME280;59683;51.428;-1.994;2023-08-21T19:52:07;101256.03;;;15.88;100.00
66664;BME280;59683;51.428;-1.994;2023-08-21T19:54:33;101255.75;;;15.82;100.00
66664;BME280;59683;51.428;-1.994;2023-08-21T19:56:59;101257.03;;;15.77;100.00
66664;BME280;59683;51.428;-1.994;2023-08-21T19:59:25;101270.06;;;15.71;100.00
66664;BME280;59683;51.428;-1.994;2023-08-21T20:01:50;101263.50;;;15.65;100.00
66664;BME280;59683;51.428;-1.994;2023-08-21T20:04:16;101252.19;;;15.52;100.00
66664;BME280;59683;51.428;-1.994;2023-08-21T20:06:42;101261.31;;;15.40;100.00
66664;BME280;59683;51.428;-1.994;2023-08-21T20:09:07;101266.75;;;15.28;100.00
66664;BME280;59683;51.428;-1.994;2023-08-21T20:11:33;101260.53;;;15.18;100.00
66664;BME280;59683;51.428;-1.994;2023-08-21T20:13:58;101267.53;;;15.10;100.00
66664;BME280;59683;51.428;-1.994;2023-08-21T20:16:25;101260.06;;;15.03;100.00
66664;BME280;59683;51.428;-1.994;2023-08-21T20:18:50;101275.66;;;14.98;100.00
66664;BME280;59683;51.428;-1.994;2023-08-21T20:21:16;101272.22;;;14.87;100.00
66664;BME280;59683;51.428;-1.994;2023-08-21T20:23:42;101274.16;;;14.75;100.00
66664;BME280;59683;51.428;-1.994;2023-08-21T20:26:08;101275.97;;;14.74;100.00
66664;BME280;59683;51.428;-1.994;2023-08-21T20:28:33;101280.00;;;14.69;100.00
66664;BME280;59683;51.428;-1.994;2023-08-21T20:31:00;101270.25;;;14.58;100.00
66664;BME280;59683;51.428;-1.994;2023-08-21T20:33:26;101275.84;;;14.55;100.00
66664;BME280;59683;51.428;-1.994;2023-08-21T20:35:52;101269.09;;;14.51;100.00
66664;BME280;59683;51.428;-1.994;2023-08-21T20:38:18;101276.47;;;14.47;100.00
66664;BME280;59683;51.428;-1.994;2023-08-21T20:40:43;101285.84;;;14.42;100.00
66664;BME280;59683;51.428;-1.994;2023-08-21T20:43:08;101289.59;;;14.39;100.00
66664;BME280;59683;51.428;-1.994;2023-08-21T20:45:34;101290.16;;;14.33;100.00
66664;BME280;59683;51.428;-1.994;2023-08-21T20:47:59;101297.06;;;14.24;100.00
66664;BME280;59683;51.428;-1.994;2023-08-21T20:50:25;101285.13;;;14.19;100.00
66664;BME280;59683;51.428;-1.994;2023-08-21T20:52:50;101290.31;;;14.20;100.00
66664;BME280;59683;51.428;-1.994;2023-08-21T20:55:17;101282.91;;;14.24;100.00
66664;BME280;59683;51.428;-1.994;2023-08-21T20:57:42;101291.75;;;14.24;100.00
66664;BME280;59683;51.428;-1.994;2023-08-21T21:00:08;101292.59;;;14.25;100.00
66664;BME280;59683;51.428;-1.994;2023-08-21T21:02:34;101294.50;;;14.34;100.00
66664;BME280;59683;51.428;-1.994;2023-08-21T21:05:00;101289.56;;;14.29;100.00
66664;BME280;59683;51.428;-1.994;2023-08-21T21:07:26;101299.91;;;14.32;100.00
